createdAt,value
2017-12-05T00:04:28.829Z,0
2017-12-05T00:09:29.009Z,0
2017-12-05T00:14:28.687Z,0
2017-12-05T00:19:28.897Z,0
2017-12-05T00:24:28.847Z,0
2017-12-05T00:29:28.839Z,0
2017-12-05T00:34:28.706Z,0
2017-12-05T00:39:28.767Z,0
2017-12-05T00:44:28.595Z,0
2017-12-05T00:49:28.595Z,0
2017-12-05T00:54:28.483Z,0
2017-12-05T00:59:28.436Z,0
2017-12-05T01:04:28.415Z,0
2017-12-05T01:09:28.342Z,0
2017-12-05T01:14:28.390Z,0
2017-12-05T01:19:28.037Z,0
2017-12-05T01:24:28.121Z,0
2017-12-05T01:29:27.913Z,0
2017-12-05T01:34:28.029Z,0
2017-12-05T01:39:27.696Z,0
2017-12-05T01:44:27.916Z,0
2017-12-05T01:49:27.827Z,0
2017-12-05T01:54:27.610Z,0
2017-12-05T01:59:27.698Z,0
2017-12-05T02:04:27.653Z,0
2017-12-05T02:09:27.646Z,0
2017-12-05T02:14:27.537Z,0
2017-12-05T02:19:27.474Z,0
2017-12-05T02:24:27.186Z,0
2017-12-05T02:29:27.339Z,0
2017-12-05T02:34:27.277Z,0
2017-12-05T02:39:27.214Z,0
2017-12-05T02:44:27.160Z,0
2017-12-05T02:49:27.095Z,0
2017-12-05T02:54:27.035Z,0
2017-12-05T02:59:26.958Z,0
2017-12-05T03:04:26.892Z,0
2017-12-05T03:09:26.872Z,0
2017-12-05T03:14:26.515Z,0
2017-12-05T03:19:26.708Z,0
2017-12-05T03:24:26.658Z,0
2017-12-05T03:29:26.591Z,0
2017-12-05T03:34:26.321Z,0
2017-12-05T03:39:26.472Z,0
2017-12-05T03:44:26.431Z,0
2017-12-05T03:49:25.869Z,0
2017-12-05T03:54:26.284Z,0
2017-12-05T03:59:26.214Z,0
2017-12-05T04:04:25.884Z,0
2017-12-05T04:09:26.143Z,0
2017-12-05T04:14:26.148Z,0
2017-12-05T04:19:25.942Z,0
2017-12-05T04:24:25.877Z,0
2017-12-05T04:29:25.824Z,0
2017-12-05T04:34:25.224Z,0
2017-12-05T04:39:25.702Z,0
2017-12-05T04:44:25.708Z,0
2017-12-05T04:49:25.527Z,0
2017-12-05T04:54:25.195Z,0
2017-12-05T04:59:25.385Z,0
2017-12-05T05:04:25.062Z,0
2017-12-05T05:09:25.234Z,0
2017-12-05T05:14:25.199Z,0
2017-12-05T05:19:24.912Z,0
2017-12-05T05:24:24.793Z,0
2017-12-05T05:29:25.068Z,0
2017-12-05T05:34:24.925Z,0
2017-12-05T05:39:24.627Z,0
2017-12-05T05:44:24.829Z,0
2017-12-05T05:49:24.490Z,0
2017-12-05T05:54:24.674Z,0
2017-12-05T05:59:24.437Z,0
2017-12-05T06:04:24.654Z,0
2017-12-05T06:09:24.499Z,0
2017-12-05T06:14:24.239Z,0
2017-12-05T06:19:24.396Z,0
2017-12-05T06:24:24.345Z,0
2017-12-05T06:29:24.375Z,0
2017-12-05T06:34:24.308Z,0
2017-12-05T06:39:23.888Z,0
2017-12-05T06:44:23.868Z,0
2017-12-05T06:49:24.048Z,0
2017-12-05T06:54:24.023Z,4
2017-12-05T06:59:23.929Z,4
2017-12-05T07:04:23.703Z,4
2017-12-05T07:09:23.558Z,4
2017-12-05T07:14:23.586Z,4
2017-12-05T07:19:23.457Z,0
2017-12-05T07:24:23.634Z,0
2017-12-05T07:29:23.570Z,0
2017-12-05T07:34:23.615Z,0
2017-12-05T07:39:23.467Z,4
2017-12-05T07:44:23.506Z,0
2017-12-05T07:49:23.344Z,4
2017-12-05T07:54:23.273Z,4
2017-12-05T07:59:23.239Z,4
2017-12-05T08:04:22.915Z,8
2017-12-05T08:09:23.106Z,4
2017-12-05T08:14:23.054Z,4
2017-12-05T08:19:22.990Z,8
2017-12-05T08:24:22.932Z,8
2017-12-05T08:29:22.629Z,8
2017-12-05T08:34:22.588Z,12
2017-12-05T08:39:22.764Z,12
2017-12-05T08:44:22.715Z,16
2017-12-05T08:49:22.654Z,16
2017-12-05T08:54:22.591Z,16
2017-12-05T08:59:22.521Z,20
2017-12-05T09:04:22.478Z,20
2017-12-05T09:09:22.504Z,20
2017-12-05T09:14:22.408Z,20
2017-12-05T09:19:22.291Z,20
2017-12-05T09:24:22.254Z,24
2017-12-05T09:29:22.210Z,24
2017-12-05T09:34:21.859Z,24
2017-12-05T09:39:22.068Z,24
2017-12-05T09:44:22.078Z,24
2017-12-05T09:49:21.943Z,24
2017-12-05T09:54:21.887Z,24
2017-12-05T09:59:21.834Z,20
2017-12-05T10:04:21.542Z,28
2017-12-05T10:09:21.749Z,32
2017-12-05T10:14:21.684Z,28
2017-12-05T10:19:21.622Z,32
2017-12-05T10:24:21.545Z,36
2017-12-05T10:29:21.289Z,32
2017-12-05T10:34:21.424Z,28
2017-12-05T10:39:21.379Z,28
2017-12-05T10:44:20.797Z,28
2017-12-05T10:49:21.281Z,36
2017-12-05T10:54:21.222Z,44
2017-12-05T10:59:21.166Z,64
2017-12-05T11:04:21.076Z,56
2017-12-05T11:09:20.783Z,36
2017-12-05T11:14:20.758Z,52
2017-12-05T11:19:20.890Z,64
2017-12-05T11:24:20.824Z,60
2017-12-05T11:29:20.778Z,56
2017-12-05T11:34:20.722Z,60
2017-12-05T11:39:20.400Z,56
2017-12-05T11:44:20.706Z,52
2017-12-05T11:49:20.542Z,56
2017-12-05T11:54:20.228Z,60
2017-12-05T11:59:20.416Z,56
2017-12-05T12:04:20.366Z,68
2017-12-05T12:09:20.041Z,60
2017-12-05T12:14:19.998Z,48
2017-12-05T12:19:20.200Z,56
2017-12-05T12:24:20.129Z,40
2017-12-05T12:29:20.060Z,28
2017-12-05T12:34:19.748Z,24
2017-12-05T12:39:19.934Z,36
2017-12-05T12:44:19.892Z,44
2017-12-05T12:49:19.816Z,52
2017-12-05T12:54:19.785Z,88
2017-12-05T12:59:19.590Z,44
2017-12-05T13:04:19.417Z,28
2017-12-05T13:09:19.627Z,24
2017-12-05T13:14:19.528Z,24
2017-12-05T13:19:19.492Z,36
2017-12-05T13:24:19.440Z,60
2017-12-05T13:29:19.399Z,40
2017-12-05T13:34:19.286Z,28
2017-12-05T13:39:19.313Z,28
2017-12-05T13:44:19.000Z,28
2017-12-05T13:49:19.119Z,24
2017-12-05T13:54:19.048Z,20
2017-12-05T13:59:19.082Z,20
2017-12-05T14:04:18.933Z,12
2017-12-05T14:09:18.884Z,16
2017-12-05T14:14:18.558Z,16
2017-12-05T14:19:18.552Z,16
2017-12-05T14:24:18.681Z,12
2017-12-05T14:29:18.625Z,16
2017-12-05T14:34:18.569Z,12
2017-12-05T14:39:18.503Z,4
2017-12-05T14:44:18.481Z,4
2017-12-05T14:49:18.371Z,4
2017-12-05T14:54:18.329Z,4
2017-12-05T14:59:18.277Z,4
2017-12-05T15:04:18.201Z,4
2017-12-05T15:09:18.150Z,4
2017-12-05T15:14:18.110Z,0
2017-12-05T15:19:18.033Z,4
2017-12-05T15:24:18.053Z,4
2017-12-05T15:29:17.736Z,4
2017-12-05T15:34:17.849Z,0
2017-12-05T15:39:17.782Z,0
2017-12-05T15:44:17.480Z,4
2017-12-05T15:49:17.687Z,4
2017-12-05T15:54:17.629Z,4
2017-12-05T15:59:17.567Z,4
2017-12-05T16:04:17.500Z,4
2017-12-05T16:09:17.202Z,4
2017-12-05T16:14:17.394Z,4
2017-12-05T16:19:17.311Z,4
2017-12-05T16:24:16.986Z,4
2017-12-05T16:29:17.206Z,4
2017-12-05T16:34:16.899Z,4
2017-12-05T16:39:17.115Z,4
2017-12-05T16:44:17.034Z,4
2017-12-05T16:49:16.969Z,4
2017-12-05T16:54:16.937Z,4
2017-12-05T16:59:16.882Z,4
2017-12-05T17:04:16.858Z,4
2017-12-05T17:09:16.768Z,4
2017-12-05T17:14:16.420Z,4
2017-12-05T17:19:16.636Z,4
2017-12-05T17:24:16.665Z,4
2017-12-05T17:29:16.294Z,4
2017-12-05T17:34:16.524Z,4
2017-12-05T17:39:16.838Z,4
2017-12-05T17:44:16.461Z,4
2017-12-05T17:49:16.393Z,4
2017-12-05T17:54:16.514Z,4
2017-12-05T17:59:16.198Z,4
2017-12-05T18:04:15.930Z,4
2017-12-05T18:09:16.170Z,4
2017-12-05T18:14:16.026Z,4
2017-12-05T18:19:15.542Z,4
2017-12-05T18:24:15.942Z,4
2017-12-05T18:29:15.879Z,4
2017-12-05T18:34:15.590Z,4
2017-12-05T18:39:15.793Z,4
2017-12-05T18:44:15.751Z,4
2017-12-05T18:49:14.865Z,4
2017-12-05T18:54:15.606Z,4
2017-12-05T18:59:15.525Z,4
2017-12-05T19:04:15.485Z,0
2017-12-05T19:09:15.145Z,0
2017-12-05T19:14:15.096Z,0
2017-12-05T19:19:15.412Z,0
2017-12-05T19:24:15.318Z,0
2017-12-05T19:29:15.286Z,0
2017-12-05T19:34:15.080Z,0
2017-12-05T19:39:14.903Z,0
2017-12-05T19:44:14.807Z,0
2017-12-05T19:49:15.023Z,0
2017-12-05T19:54:14.931Z,0
2017-12-05T19:59:14.937Z,0
2017-12-05T20:04:14.883Z,0
2017-12-05T20:09:14.525Z,0
2017-12-05T20:14:14.552Z,0
2017-12-05T20:19:14.659Z,0
2017-12-05T20:24:14.604Z,0
2017-12-05T20:29:14.273Z,0
2017-12-05T20:34:14.221Z,0
2017-12-05T20:39:14.417Z,0
2017-12-05T20:44:14.524Z,0
2017-12-05T20:49:14.331Z,0
2017-12-05T20:54:14.247Z,0
2017-12-05T20:59:14.178Z,0
2017-12-05T21:04:14.165Z,0
2017-12-05T21:09:14.125Z,0
2017-12-05T21:14:14.040Z,0
2017-12-05T21:19:13.987Z,0
2017-12-05T21:24:13.940Z,4
2017-12-05T21:29:13.885Z,4
2017-12-05T21:34:13.821Z,4
2017-12-05T21:39:13.806Z,4
2017-12-05T21:44:13.720Z,4
2017-12-05T21:49:13.647Z,4
2017-12-05T21:54:13.389Z,4
2017-12-05T21:59:13.290Z,4
2017-12-05T22:04:13.494Z,4
2017-12-05T22:09:13.170Z,4
2017-12-05T22:14:13.154Z,4
2017-12-05T22:19:13.318Z,4
2017-12-05T22:24:13.276Z,4
2017-12-05T22:29:13.201Z,4
2017-12-05T22:34:13.254Z,4
2017-12-05T22:39:12.820Z,0
2017-12-05T22:44:13.110Z,0
2017-12-05T22:49:12.964Z,0
2017-12-05T22:54:12.905Z,0
2017-12-05T22:59:12.911Z,0
2017-12-05T23:04:12.794Z,0
2017-12-05T23:09:12.763Z,0
2017-12-05T23:14:12.746Z,0
2017-12-05T23:19:12.627Z,0
2017-12-05T23:24:12.555Z,0
2017-12-05T23:29:12.499Z,0
2017-12-05T23:34:12.451Z,0
2017-12-05T23:39:12.387Z,0
2017-12-05T23:44:12.328Z,0
2017-12-05T23:49:12.267Z,0
2017-12-05T23:54:12.223Z,0
2017-12-05T23:59:12.212Z,0
